Time;durP1;ratioP1;P1;durP2;ratioP2;P2;SDS_P1;SDS_P2;PMS_P1;PMS_P2;Temp;Humidity;BMP_temperature;BMP_pressure;BME280_temperature;BME280_humidity;BME280_pressure;Samples;Min_cycle;Max_cycle;Signal;HPM_P1;HPM_P2
2021/07/10 00:02:07;;;;;;;9.55;8.55;;;22.80;68.10;;;;;;10414275;28;20029;-49
2021/07/10 00:07:07;;;;;;;10.07;9.07;;;22.70;68.00;;;;;;10401770;28;20037;-46
2021/07/10 00:12:08;;;;;;;9.38;8.48;;;22.70;68.00;;;;;;10413890;28;20057;-46
2021/07/10 00:17:09;;;;;;;9.48;8.57;;;22.70;67.80;;;;;;10413692;28;20029;-48
2021/07/10 00:22:10;;;;;;;9.85;8.95;;;22.70;67.70;;;;;;10421293;28;20017;-45
2021/07/10 00:27:11;;;;;;;10.27;9.27;;;22.70;67.70;;;;;;10413415;28;20116;-45
2021/07/10 00:32:11;;;;;;;9.93;8.63;;;22.70;67.70;;;;;;10413829;28;20029;-50
2021/07/10 00:37:12;;;;;;;9.65;8.75;;;22.70;67.70;;;;;;10413217;28;20112;-51
2021/07/10 00:42:16;;;;;;;10.48;9.38;;;22.70;67.70;;;;;;10409250;28;20045;-46
2021/07/10 00:47:17;;;;;;;9.35;8.45;;;22.70;67.70;;;;;;10416023;28;20048;-45
2021/07/10 00:52:18;;;;;;;8.77;7.97;;;22.70;67.70;;;;;;10420603;28;20441;-45
2021/07/10 00:57:20;;;;;;;9.77;8.77;;;22.70;67.70;;;;;;10420371;28;20057;-46
2021/07/10 01:02:21;;;;;;;9.52;8.05;;;22.70;67.60;;;;;;10408062;28;20041;-46
2021/07/10 01:07:22;;;;;;;9.07;8.18;;;22.60;67.60;;;;;;10419663;28;20034;-46
2021/07/10 01:12:23;;;;;;;9.52;8.63;;;22.70;67.60;;;;;;10419666;28;20488;-46
2021/07/10 01:17:24;;;;;;;10.85;9.85;;;22.60;67.40;;;;;;10419310;28;20363;-47
2021/07/10 01:22:25;;;;;;;9.40;8.50;;;22.60;67.20;;;;;;10427771;28;20025;-45
2021/07/10 01:27:25;;;;;;;9.52;8.63;;;22.70;67.30;;;;;;10419118;28;20425;-45
2021/07/10 01:32:27;;;;;;;9.40;8.50;;;22.70;67.30;;;;;;10419038;28;20087;-45
2021/07/10 01:37:28;;;;;;;9.65;8.45;;;22.70;67.20;;;;;;10418922;28;20032;-45
2021/07/10 01:42:31;;;;;;;9.55;8.65;;;22.60;67.00;;;;;;10418313;28;20053;-44
2021/07/10 01:47:32;;;;;;;9.65;8.75;;;22.60;67.20;;;;;;10404923;28;20452;-45
2021/07/10 01:52:34;;;;;;;9.18;8.32;;;22.60;67.90;;;;;;10418124;28;20056;-48
2021/07/10 01:57:36;;;;;;;9.48;8.45;;;22.60;67.20;;;;;;10417897;28;20029;-45
2021/07/10 02:02:39;;;;;;;9.55;8.55;;;22.60;67.10;;;;;;10417793;28;20478;-48
2021/07/10 02:07:40;;;;;;;9.13;8.23;;;22.60;67.20;;;;;;10417320;28;20123;-46
2021/07/10 02:12:50;;;;;;;8.90;8.00;;;22.60;67.10;;;;;;10416001;28;20049;-47
2021/07/10 02:17:51;;;;;;;9.05;8.23;;;22.50;67.00;;;;;;10417085;28;20029;-45
2021/07/10 02:22:51;;;;;;;9.25;8.43;;;22.60;67.00;;;;;;10425419;28;20532;-48
2021/07/10 02:27:52;;;;;;;8.45;7.65;;;22.60;66.90;;;;;;10416686;28;20038;-45
2021/07/10 02:32:56;;;;;;;9.05;8.15;;;22.60;66.90;;;;;;10431918;28;20017;-49
2021/07/10 02:37:58;;;;;;;9.52;8.50;;;22.60;66.90;;;;;;10416411;28;20032;-46
2021/07/10 02:42:59;;;;;;;9.65;8.75;;;22.60;67.00;;;;;;10416043;28;20041;-46
2021/07/10 02:48:01;;;;;;;9.55;8.65;;;22.50;66.80;;;;;;10416011;28;20048;-47
2021/07/10 02:53:04;;;;;;;9.70;8.70;;;22.50;66.60;;;;;;10415907;28;20025;-45
2021/07/10 02:58:05;;;;;;;13.32;8.57;;;22.50;66.70;;;;;;10415728;28;20036;-45
2021/07/10 03:03:06;;;;;;;9.32;8.43;;;22.50;66.70;;;;;;10415665;28;20064;-45
2021/07/10 03:08:07;;;;;;;9.93;8.93;;;22.50;66.60;;;;;;10414830;28;20037;-44
2021/07/10 03:13:09;;;;;;;9.18;8.27;;;22.50;66.50;;;;;;10410928;28;20021;-46
2021/07/10 03:18:09;;;;;;;9.40;8.50;;;22.50;66.40;;;;;;10415127;28;20413;-46
2021/07/10 03:23:10;;;;;;;9.45;8.18;;;22.50;66.40;;;;;;10422533;28;20033;-45
2021/07/10 03:28:11;;;;;;;10.02;9.02;;;22.50;66.30;;;;;;10413644;28;20029;-45
2021/07/10 03:33:11;;;;;;;9.48;8.45;;;22.50;66.20;;;;;;10414524;28;20057;-45
2021/07/10 03:38:12;;;;;;;8.70;7.90;;;22.40;66.10;;;;;;10414795;28;20537;-46
2021/07/10 03:43:13;;;;;;;8.30;7.53;;;22.50;66.10;;;;;;10414086;28;20049;-45
2021/07/10 03:48:14;;;;;;;8.50;7.70;;;22.40;66.00;;;;;;10414300;28;20034;-45
2021/07/10 03:53:15;;;;;;;9.43;8.13;;;22.40;66.00;;;;;;10414084;28;20037;-44
2021/07/10 03:58:15;;;;;;;9.85;8.90;;;22.40;66.00;;;;;;10413951;28;20108;-45
2021/07/10 04:03:16;;;;;;;9.32;8.43;;;22.40;66.10;;;;;;10413909;28;20041;-46
2021/07/10 04:08:17;;;;;;;9.82;8.82;;;22.40;65.90;;;;;;10413969;28;20773;-47
2021/07/10 04:13:17;;;;;;;9.15;8.27;;;22.40;65.80;;;;;;10413778;28;20095;-45
2021/07/10 04:18:18;;;;;;;8.60;7.80;;;22.40;65.70;;;;;;10413845;28;20064;-46
2021/07/10 04:23:20;;;;;;;8.75;7.95;;;22.40;65.80;;;;;;10427382;28;20079;-45
2021/07/10 04:28:20;;;;;;;8.77;7.95;;;22.40;65.90;;;;;;10421262;28;20112;-46
2021/07/10 04:33:21;;;;;;;9.68;8.77;;;22.40;65.90;;;;;;10421224;28;20036;-45
2021/07/10 04:38:22;;;;;;;8.93;7.68;;;22.40;66.00;;;;;;10420817;28;20030;-47
2021/07/10 04:43:23;;;;;;;8.38;7.57;;;22.40;65.80;;;;;;10420492;28;20102;-45
2021/07/10 04:48:23;;;;;;;8.73;7.82;;;22.40;65.90;;;;;;10419335;28;20457;-47
2021/07/10 04:53:24;;;;;;;9.38;8.32;;;22.40;66.00;;;;;;10418769;28;20049;-45
2021/07/10 04:58:25;;;;;;;8.40;7.55;;;22.40;66.10;;;;;;10420005;28;20033;-46
2021/07/10 05:03:25;;;;;;;8.80;7.90;;;22.30;66.20;;;;;;10420013;28;20032;-45
2021/07/10 05:08:26;;;;;;;8.98;7.22;;;22.40;66.20;;;;;;10418395;28;20087;-45
2021/07/10 05:13:27;;;;;;;8.50;7.70;;;22.40;66.30;;;;;;10419898;28;20552;-45
2021/07/10 05:18:27;;;;;;;8.70;7.80;;;22.30;66.40;;;;;;10418544;28;20486;-45
2021/07/10 05:23:28;;;;;;;8.20;7.40;;;22.40;66.50;;;;;;10405522;28;20025;-46
2021/07/10 05:28:29;;;;;;;13.25;8.25;;;22.40;66.50;;;;;;10418123;28;20029;-45
2021/07/10 05:33:30;;;;;;;9.13;8.05;;;22.40;67.00;;;;;;10417491;28;20017;-47
2021/07/10 05:38:30;;;;;;;11.43;9.13;;;22.40;67.10;;;;;;10417294;28;20029;-49
2021/07/10 05:43:31;;;;;;;15.23;9.40;;;22.50;67.50;;;;;;10417335;28;20046;-45
2021/07/10 05:48:33;;;;;;;14.57;9.88;;;22.50;67.80;;;;;;10414620;28;20124;-45
2021/07/10 05:53:33;;;;;;;11.23;8.82;;;22.50;67.80;;;;;;10418141;28;20079;-45
2021/07/10 05:58:34;;;;;;;23.38;9.32;;;22.50;68.00;;;;;;10416634;28;20538;-44
2021/07/10 06:03:35;;;;;;;19.27;9.63;;;22.50;67.60;;;;;;10417698;28;20449;-45
2021/07/10 06:08:36;;;;;;;21.88;10.45;;;22.50;67.80;;;;;;10416281;28;20091;-45
2021/07/10 06:13:37;;;;;;;27.15;10.10;;;22.50;68.10;;;;;;10416147;28;20592;-45
2021/07/10 06:18:38;;;;;;;18.90;11.05;;;22.50;68.50;;;;;;10417168;28;20393;-45
2021/07/10 06:23:41;;;;;;;19.50;10.60;;;22.60;68.80;;;;;;10424310;28;20028;-44
2021/07/10 06:28:41;;;;;;;22.10;9.93;;;22.60;68.90;;;;;;10410406;28;20033;-46
2021/07/10 06:33:42;;;;;;;19.45;10.75;;;22.60;69.00;;;;;;10406227;28;20037;-45
2021/07/10 06:38:43;;;;;;;27.10;11.73;;;22.60;69.00;;;;;;10415318;28;20106;-45
2021/07/10 06:43:43;;;;;;;30.48;12.55;;;22.60;69.20;;;;;;10409437;28;20049;-44
2021/07/10 06:48:44;;;;;;;20.90;10.40;;;22.60;69.30;;;;;;10409039;28;20061;-44
2021/07/10 06:53:45;;;;;;;24.42;12.05;;;22.60;69.40;;;;;;10415495;28;20076;-49
2021/07/10 06:58:46;;;;;;;20.08;10.85;;;22.60;69.20;;;;;;10399903;28;20025;-48
2021/07/10 07:03:46;;;;;;;19.15;10.93;;;22.60;69.10;;;;;;10400051;28;20069;-43
2021/07/10 07:08:47;;;;;;;15.77;10.40;;;22.60;69.90;;;;;;10394106;28;20030;-45
2021/07/10 07:13:48;;;;;;;24.00;10.85;;;22.60;69.30;;;;;;10409036;28;20137;-45
2021/07/10 07:18:48;;;;;;;18.65;13.30;;;22.60;69.40;;;;;;10413191;28;20041;-46
2021/07/10 07:23:49;;;;;;;27.92;11.82;;;22.70;69.30;;;;;;10413680;28;20513;-46
2021/07/10 07:28:50;;;;;;;24.55;12.95;;;22.60;69.60;;;;;;10413303;28;20033;-56
2021/07/10 07:33:51;;;;;;;21.10;11.65;;;22.60;70.10;;;;;;10413341;28;20056;-45
2021/07/10 07:38:51;;;;;;;20.67;11.77;;;22.60;69.90;;;;;;10413937;28;20041;-46
2021/07/10 07:43:52;;;;;;;22.30;11.18;;;22.70;69.70;;;;;;10413060;28;20057;-44
2021/07/10 07:48:53;;;;;;;20.00;11.57;;;22.60;69.50;;;;;;10413463;28;20120;-46
2021/07/10 07:53:54;;;;;;;15.93;10.88;;;22.70;69.10;;;;;;10412620;28;20025;-47
2021/07/10 07:58:54;;;;;;;13.85;10.63;;;22.60;69.00;;;;;;10418521;28;20104;-44
2021/07/10 08:03:55;;;;;;;15.23;10.57;;;22.70;69.10;;;;;;10421564;28;20037;-44
2021/07/10 08:08:56;;;;;;;20.10;11.65;;;22.60;68.90;;;;;;10420180;28;20381;-50
2021/07/10 08:13:57;;;;;;;26.60;12.00;;;22.60;68.90;;;;;;10421390;28;20438;-45
2021/07/10 08:18:58;;;;;;;20.17;10.75;;;22.70;69.20;;;;;;10421314;28;20029;-47
2021/07/10 08:24:00;;;;;;;20.17;11.73;;;22.70;68.90;;;;;;10427677;28;20031;-49
2021/07/10 08:29:02;;;;;;;15.02;10.00;;;22.70;68.80;;;;;;10419544;28;20061;-47
2021/07/10 08:34:03;;;;;;;16.15;10.80;;;22.70;68.60;;;;;;10420675;28;20536;-47
2021/07/10 08:39:07;;;;;;;17.67;10.75;;;22.70;68.70;;;;;;10419643;28;20033;-46
2021/07/10 08:44:08;;;;;;;16.50;10.43;;;22.70;68.40;;;;;;10418951;28;20049;-50
2021/07/10 08:49:15;;;;;;;11.48;8.50;;;22.60;68.40;;;;;;10419439;28;20037;-46
2021/07/10 08:54:17;;;;;;;15.98;10.70;;;22.70;68.70;;;;;;10419927;28;20061;-47
2021/07/10 08:59:18;;;;;;;13.70;8.98;;;22.70;68.50;;;;;;10420025;28;20039;-46
2021/07/10 09:04:18;;;;;;;13.60;9.35;;;22.70;68.60;;;;;;10419937;28;20109;-47
2021/07/10 09:09:19;;;;;;;14.25;10.10;;;22.60;68.30;;;;;;10418796;28;20552;-46
2021/07/10 09:14:29;;;;;;;15.15;9.27;;;22.70;68.10;;;;;;10419515;28;20033;-48
2021/07/10 09:19:30;;;;;;;13.93;8.10;;;22.60;68.20;;;;;;10419130;28;20500;-46
2021/07/10 09:24:39;;;;;;;12.35;8.68;;;22.70;68.20;;;;;;10423237;28;20109;-46
2021/07/10 09:29:43;;;;;;;13.23;8.30;;;22.70;68.10;;;;;;10419140;28;20441;-47
2021/07/10 09:34:48;;;;;;;11.75;7.93;;;22.70;68.20;;;;;;10418944;28;20045;-47
2021/07/10 09:40:00;;;;;;;11.65;8.73;;;22.70;68.10;;;;;;10418678;28;20398;-46
2021/07/10 09:45:02;;;;;;;11.25;7.97;;;22.70;68.10;;;;;;10418184;28;20059;-46
2021/07/10 09:50:08;;;;;;;13.80;7.97;;;22.70;68.20;;;;;;10418178;28;20029;-48
2021/07/10 09:55:15;;;;;;;10.75;8.18;;;22.60;68.10;;;;;;10418200;28;20112;-47
2021/07/10 10:00:20;;;;;;;9.68;8.32;;;22.70;68.10;;;;;;10418379;28;20025;-46
2021/07/10 10:05:30;;;;;;;9.38;8.30;;;22.70;68.10;;;;;;10416575;28;20040;-46
2021/07/10 10:10:35;;;;;;;9.60;7.80;;;22.70;67.90;;;;;;10417066;28;20108;-48
2021/07/10 10:15:48;;;;;;;9.02;7.28;;;22.70;68.10;;;;;;10417492;28;20393;-47
2021/07/10 10:20:51;;;;;;;9.75;7.95;;;22.70;68.00;;;;;;10423823;28;20095;-48
2021/07/10 10:25:51;;;;;;;12.20;7.57;;;22.70;67.90;;;;;;10416360;28;20109;-47
2021/07/10 10:30:56;;;;;;;14.68;7.22;;;22.70;67.90;;;;;;10416422;28;20147;-46
2021/07/10 10:35:57;;;;;;;9.50;8.50;;;22.70;67.90;;;;;;10416626;28;20022;-48
2021/07/10 10:41:01;;;;;;;9.52;7.78;;;22.70;67.80;;;;;;10414893;28;20115;-46
2021/07/10 10:46:16;;;;;;;7.93;6.97;;;22.70;67.80;;;;;;10416049;28;20081;-46
2021/07/10 10:51:32;;;;;;;7.65;6.85;;;22.80;67.90;;;;;;10415907;28;20419;-46
2021/07/10 10:56:38;;;;;;;8.43;7.43;;;22.80;67.80;;;;;;10415788;28;20164;-46
2021/07/10 11:01:39;;;;;;;9.13;7.50;;;22.70;67.70;;;;;;10414245;28;20159;-48
2021/07/10 11:06:39;;;;;;;8.13;7.30;;;22.80;67.80;;;;;;10414027;28;20585;-52
2021/07/10 11:11:41;;;;;;;10.85;8.32;;;22.70;67.70;;;;;;10414906;28;20485;-46
2021/07/10 11:17:04;;;;;;;10.43;8.20;;;22.80;67.70;;;;;;10414760;28;20033;-48
2021/07/10 11:22:05;;;;;;;9.77;7.80;;;22.80;67.70;;;;;;10423997;28;20025;-47
2021/07/10 11:27:08;;;;;;;8.40;6.53;;;22.80;67.50;;;;;;10414417;28;20117;-46
2021/07/10 11:32:12;;;;;;;9.25;6.78;;;22.80;67.60;;;;;;10413815;28;20056;-48
2021/07/10 11:37:27;;;;;;;9.80;7.07;;;22.80;67.60;;;;;;10414060;28;20052;-44
2021/07/10 11:42:28;;;;;;;10.77;7.47;;;22.80;67.50;;;;;;10414321;28;20053;-46
2021/07/10 11:47:45;;;;;;;9.65;8.68;;;22.90;67.50;;;;;;10414213;28;20421;-45
2021/07/10 11:53:04;;;;;;;10.40;8.23;;;22.90;67.30;;;;;;10404500;28;20032;-46
2021/07/10 11:58:14;;;;;;;;;;;22.90;67.50;;;;;;10407246;28;20492;-45
2021/07/10 12:03:25;;;;;;;10.45;8.55;;;22.90;67.60;;;;;;10414083;28;19913;-46
2021/07/10 12:08:27;;;;;;;10.10;8.30;;;22.90;67.80;;;;;;10413834;28;20029;-44
2021/07/10 12:13:30;;;;;;;9.23;7.88;;;22.90;67.80;;;;;;10413394;28;20486;-44
2021/07/10 12:18:35;;;;;;;11.75;7.78;;;22.90;68.00;;;;;;10413047;28;20029;-46
2021/07/10 12:23:42;;;;;;;10.70;7.90;;;23.00;67.90;;;;;;10415194;28;20029;-46
2021/07/10 12:28:57;;;;;;;9.68;7.85;;;23.00;67.60;;;;;;10410472;28;20044;-45
2021/07/10 12:34:00;;;;;;;12.52;8.38;;;23.00;67.60;;;;;;10413603;28;20385;-45
2021/07/10 12:39:22;;;;;;;11.00;7.53;;;23.00;67.50;;;;;;10408888;28;20037;-46
2021/07/10 12:44:36;;;;;;;9.73;8.57;;;23.00;67.30;;;;;;10416876;28;20383;-45
2021/07/10 12:49:49;;;;;;;8.57;7.30;;;23.00;67.20;;;;;;10417706;28;20029;-44
2021/07/10 12:55:15;;;;;;;9.55;8.07;;;23.00;67.30;;;;;;10419234;28;20033;-45
2021/07/10 13:00:21;;;;;;;7.80;6.70;;;23.10;67.30;;;;;;10431808;28;20025;-45
2021/07/10 13:05:35;;;;;;;10.70;7.75;;;23.10;67.20;;;;;;10418526;28;20112;-44
2021/07/10 13:10:37;;;;;;;11.18;7.75;;;23.10;66.70;;;;;;10417235;28;20044;-47
2021/07/10 13:15:45;;;;;;;12.63;8.40;;;23.10;66.80;;;;;;10418382;28;20017;-51
2021/07/10 13:20:57;;;;;;;16.80;7.97;;;23.10;67.00;;;;;;10411628;28;20045;-48
2021/07/10 13:25:58;;;;;;;17.83;8.55;;;23.10;66.90;;;;;;10412861;28;20057;-45
2021/07/10 13:31:27;;;;;;;16.73;8.43;;;23.10;67.80;;;;;;10410065;28;20030;-48
2021/07/10 13:36:35;;;;;;;14.25;8.98;;;23.10;67.60;;;;;;10410411;28;20477;-47
2021/07/10 13:41:39;;;;;;;16.63;9.40;;;23.10;67.50;;;;;;10406973;28;20045;-47
2021/07/10 13:46:46;;;;;;;23.60;9.73;;;23.10;67.30;;;;;;10417046;28;20120;-49
2021/07/10 13:52:10;;;;;;;17.48;9.18;;;23.10;67.50;;;;;;10413681;28;20068;-49
2021/07/10 13:57:29;;;;;;;19.27;9.48;;;23.10;67.40;;;;;;10416895;28;20390;-47
2021/07/10 14:02:32;;;;;;;13.48;8.10;;;23.10;67.10;;;;;;10417512;28;20555;-50
2021/07/10 14:07:36;;;;;;;15.38;8.07;;;23.10;67.10;;;;;;10414552;28;20033;-49
2021/07/10 14:12:37;;;;;;;16.65;9.40;;;23.10;67.60;;;;;;10410425;28;20029;-49
2021/07/10 14:17:38;;;;;;;14.55;9.15;;;23.10;67.10;;;;;;10412045;28;20144;-51
2021/07/10 14:22:40;;;;;;;16.55;8.68;;;23.10;67.40;;;;;;10411862;28;20033;-50
2021/07/10 14:27:41;;;;;;;18.42;8.45;;;23.10;67.50;;;;;;10415753;28;20033;-46
2021/07/10 14:32:43;;;;;;;25.98;10.88;;;23.10;67.90;;;;;;10405551;28;20103;-48
2021/07/10 14:37:45;;;;;;;20.63;9.13;;;23.10;67.80;;;;;;10390575;28;20152;-53
2021/07/10 14:42:46;;;;;;;16.13;8.25;;;23.10;67.70;;;;;;10414759;28;20107;-51
2021/07/10 14:47:48;;;;;;;28.00;10.25;;;23.10;67.60;;;;;;10414895;28;20029;-47
2021/07/10 14:52:49;;;;;;;20.13;8.38;;;23.20;68.00;;;;;;10409702;28;20033;-48
2021/07/10 14:57:50;;;;;;;19.10;9.30;;;23.10;68.80;;;;;;10414874;28;20045;-51
2021/07/10 15:02:51;;;;;;;22.75;9.35;;;23.20;68.60;;;;;;10400839;28;20026;-53
2021/07/10 15:07:52;;;;;;;22.70;8.68;;;23.10;68.30;;;;;;10412234;28;20064;-52
2021/07/10 15:12:53;;;;;;;16.95;9.52;;;23.20;68.10;;;;;;10413657;28;20026;-54
2021/07/10 15:17:54;;;;;;;18.02;9.50;;;23.20;68.00;;;;;;10415004;28;20069;-55
2021/07/10 15:22:55;;;;;;;21.38;8.20;;;23.20;67.90;;;;;;10414421;28;20385;-55
2021/07/10 15:27:57;;;;;;;13.00;8.00;;;23.10;67.80;;;;;;10414132;28;20124;-55
2021/07/10 15:32:58;;;;;;;13.32;9.52;;;23.10;67.70;;;;;;10414591;28;20022;-55
2021/07/10 15:38:01;;;;;;;17.58;13.32;;;23.10;67.50;;;;;;10414376;28;20033;-52
2021/07/10 15:43:02;;;;;;;22.50;14.70;;;23.20;67.30;;;;;;10414173;28;20045;-56
2021/07/10 15:48:03;;;;;;;20.83;13.05;;;23.20;66.90;;;;;;10413335;28;20092;-56
2021/07/10 15:53:04;;;;;;;14.80;11.70;;;23.30;65.90;;;;;;10413942;28;20026;-57
2021/07/10 15:58:05;;;;;;;17.80;13.70;;;23.30;65.30;;;;;;10413732;28;20064;-56
2021/07/10 16:03:06;;;;;;;34.20;21.02;;;23.30;65.30;;;;;;10413448;28;20108;-56
2021/07/10 16:08:07;;;;;;;36.25;21.02;;;23.30;66.00;;;;;;10413986;28;20044;-56
2021/07/10 16:13:08;;;;;;;30.83;18.85;;;23.30;65.50;;;;;;10411487;28;20346;-56
2021/07/10 16:18:09;;;;;;;26.45;16.52;;;23.30;65.20;;;;;;10417152;28;20037;-55
2021/07/10 16:23:10;;;;;;;17.20;14.82;;;23.30;63.00;;;;;;10429554;28;20029;-56
2021/07/10 16:28:11;;;;;;;23.10;14.02;;;23.30;64.00;;;;;;10421438;28;20045;-57
2021/07/10 16:33:12;;;;;;;18.77;13.80;;;23.30;64.30;;;;;;10421283;28;20033;-57
2021/07/10 16:38:12;;;;;;;14.77;12.77;;;23.40;64.70;;;;;;10420831;28;20394;-55
2021/07/10 16:43:13;;;;;;;16.77;12.75;;;23.40;64.40;;;;;;10419681;28;20077;-55
2021/07/10 16:48:17;;;;;;;16.52;12.85;;;23.40;64.40;;;;;;10420948;28;20061;-54
2021/07/10 16:53:18;;;;;;;21.52;13.18;;;23.40;64.50;;;;;;10420623;28;20101;-49
2021/07/10 16:58:19;;;;;;;24.30;13.35;;;23.40;65.00;;;;;;10417055;28;20108;-52
2021/07/10 17:03:20;;;;;;;20.67;11.38;;;23.30;65.00;;;;;;10418491;28;20029;-54
2021/07/10 17:08:21;;;;;;;19.65;12.07;;;23.40;65.20;;;;;;10417322;28;20038;-50
2021/07/10 17:13:22;;;;;;;23.73;12.73;;;23.30;65.00;;;;;;10417505;28;20044;-55
2021/07/10 17:18:23;;;;;;;17.92;12.95;;;23.40;65.60;;;;;;10416472;28;20101;-54
2021/07/10 17:23:24;;;;;;;16.63;12.13;;;23.30;65.20;;;;;;10416603;28;20029;-53
2021/07/10 17:28:25;;;;;;;21.23;11.57;;;23.30;65.40;;;;;;10417976;28;20021;-54
2021/07/10 17:33:26;;;;;;;14.35;10.75;;;23.30;65.20;;;;;;10417444;28;20030;-53
2021/07/10 17:38:26;;;;;;;18.67;12.02;;;23.30;65.10;;;;;;10419012;28;20028;-52
2021/07/10 17:43:27;;;;;;;14.15;9.75;;;23.30;65.10;;;;;;10418779;28;20084;-54
2021/07/10 17:48:28;;;;;;;15.60;9.85;;;23.30;65.00;;;;;;10418715;28;20036;-54
2021/07/10 17:53:29;;;;;;;16.05;9.77;;;23.30;64.40;;;;;;10418336;28;20033;-56
2021/07/10 17:58:30;;;;;;;10.45;9.20;;;23.20;64.30;;;;;;10417915;28;20401;-55
2021/07/10 18:03:31;;;;;;;14.57;9.65;;;23.20;64.20;;;;;;10417999;28;20509;-55
2021/07/10 18:08:34;;;;;;;12.07;9.02;;;23.20;64.40;;;;;;10417283;28;20048;-53
2021/07/10 18:13:35;;;;;;;12.55;9.02;;;23.20;64.30;;;;;;10415275;28;20021;-54
2021/07/10 18:18:36;;;;;;;12.88;9.40;;;23.20;64.70;;;;;;10416404;28;20389;-55
2021/07/10 18:23:36;;;;;;;9.20;8.18;;;23.20;64.80;;;;;;10425335;28;20064;-54
2021/07/10 18:28:38;;;;;;;12.38;8.30;;;23.20;65.20;;;;;;10416953;28;20033;-56
2021/07/10 18:33:39;;;;;;;11.85;8.63;;;23.20;64.70;;;;;;10416871;28;20052;-54
2021/07/10 18:38:40;;;;;;;10.73;9.20;;;23.10;64.80;;;;;;10416461;28;20035;-58
2021/07/10 18:43:41;;;;;;;9.45;8.45;;;23.10;64.40;;;;;;10406614;28;20120;-57
2021/07/10 18:48:42;;;;;;;11.27;9.60;;;23.10;64.60;;;;;;10411040;28;20394;-57
2021/07/10 18:53:43;;;;;;;9.88;8.88;;;23.10;64.70;;;;;;10415358;28;20104;-58
2021/07/10 18:58:44;;;;;;;11.63;9.48;;;23.10;64.70;;;;;;10415139;28;20039;-57
2021/07/10 19:03:45;;;;;;;14.10;8.57;;;23.10;64.80;;;;;;10414518;28;20041;-58
2021/07/10 19:08:46;;;;;;;9.40;8.52;;;23.10;64.80;;;;;;10414008;28;20365;-57
2021/07/10 19:13:47;;;;;;;11.15;9.52;;;23.10;64.90;;;;;;10414317;28;20029;-57
2021/07/10 19:18:48;;;;;;;9.95;8.10;;;23.10;64.90;;;;;;10413678;28;20126;-57
2021/07/10 19:23:49;;;;;;;9.02;8.13;;;23.10;65.00;;;;;;10411925;28;20048;-57
2021/07/10 19:28:50;;;;;;;9.30;8.40;;;23.10;65.10;;;;;;10413593;28;20113;-56
2021/07/10 19:33:51;;;;;;;9.70;8.70;;;23.10;65.10;;;;;;10413084;28;20025;-57
2021/07/10 19:38:52;;;;;;;10.35;8.50;;;23.10;65.00;;;;;;10412688;28;20497;-57
2021/07/10 19:43:53;;;;;;;9.00;8.20;;;23.10;65.00;;;;;;10413994;28;20049;-56
2021/07/10 19:48:54;;;;;;;10.25;8.93;;;23.10;65.00;;;;;;10413756;28;20030;-56
2021/07/10 19:53:55;;;;;;;8.98;8.07;;;23.10;64.90;;;;;;10423417;28;20084;-56
2021/07/10 19:58:56;;;;;;;10.82;9.65;;;23.00;64.80;;;;;;10426655;28;20079;-56
2021/07/10 20:03:57;;;;;;;10.20;9.20;;;23.10;64.90;;;;;;10426527;28;20030;-57
2021/07/10 20:08:58;;;;;;;9.93;9.02;;;23.10;65.00;;;;;;10427734;28;20366;-56
2021/07/10 20:13:58;;;;;;;8.90;8.05;;;23.00;65.00;;;;;;10427534;28;20029;-57
2021/07/10 20:18:59;;;;;;;12.05;9.43;;;23.00;65.00;;;;;;10427516;28;20080;-57
2021/07/10 20:24:00;;;;;;;9.70;8.70;;;23.00;65.10;;;;;;10435868;28;20044;-56
2021/07/10 20:29:01;;;;;;;8.57;7.78;;;23.00;65.20;;;;;;10427604;28;20049;-56
2021/07/10 20:34:02;;;;;;;9.45;8.55;;;23.00;65.30;;;;;;10427223;28;20044;-57
2021/07/10 20:39:05;;;;;;;10.57;9.55;;;23.00;65.30;;;;;;10427268;28;20032;-57
2021/07/10 20:44:05;;;;;;;10.98;9.23;;;23.00;65.40;;;;;;10426821;28;20057;-57
2021/07/10 20:49:06;;;;;;;10.60;9.23;;;23.00;65.50;;;;;;10426883;28;20050;-57
2021/07/10 20:54:07;;;;;;;9.35;8.45;;;23.00;65.50;;;;;;10413822;28;20040;-56
2021/07/10 20:59:08;;;;;;;9.80;8.98;;;23.00;65.50;;;;;;10426342;28;20036;-57
2021/07/10 21:04:09;;;;;;;10.30;9.40;;;23.00;65.60;;;;;;10422687;28;20116;-56
2021/07/10 21:09:16;;;;;;;10.23;9.23;;;23.00;65.60;;;;;;10419948;28;20112;-56
2021/07/10 21:14:19;;;;;;;9.80;8.80;;;23.00;65.60;;;;;;10419913;28;20083;-57
2021/07/10 21:19:20;;;;;;;10.10;9.02;;;23.00;65.70;;;;;;10421820;28;20454;-57
2021/07/10 21:24:21;;;;;;;10.57;9.57;;;23.00;65.80;;;;;;10425108;28;20045;-57
2021/07/10 21:29:22;;;;;;;9.95;8.90;;;23.00;65.80;;;;;;10419191;28;20124;-57
2021/07/10 21:34:23;;;;;;;9.73;8.77;;;23.00;65.80;;;;;;10404774;28;20030;-56
2021/07/10 21:39:24;;;;;;;9.85;8.90;;;22.90;65.70;;;;;;10419028;28;20120;-57
2021/07/10 21:44:25;;;;;;;9.88;8.98;;;22.90;65.70;;;;;;10418415;28;20050;-55
2021/07/10 21:49:26;;;;;;;9.98;9.00;;;22.90;65.70;;;;;;10418629;28;20474;-56
2021/07/10 21:54:27;;;;;;;13.20;8.50;;;22.90;65.70;;;;;;10418341;28;20470;-56
2021/07/10 21:59:28;;;;;;;9.73;8.68;;;22.90;65.80;;;;;;10418378;28;20033;-56
2021/07/10 22:04:29;;;;;;;9.50;8.60;;;22.90;65.70;;;;;;10416842;28;20100;-57
2021/07/10 22:09:29;;;;;;;10.55;9.45;;;22.90;65.80;;;;;;10417996;28;20504;-57
2021/07/10 22:14:30;;;;;;;10.48;9.38;;;22.90;65.90;;;;;;10417490;28;20029;-57
2021/07/10 22:19:31;;;;;;;10.13;9.05;;;22.90;65.90;;;;;;10419795;28;20373;-56
2021/07/10 22:24:32;;;;;;;10.55;9.55;;;22.90;65.90;;;;;;10422307;28;20038;-57
2021/07/10 22:29:33;;;;;;;10.70;9.30;;;22.90;66.00;;;;;;10416732;28;20071;-57
2021/07/10 22:34:33;;;;;;;10.32;9.32;;;22.90;66.00;;;;;;10417271;28;20033;-57
2021/07/10 22:39:34;;;;;;;9.93;9.02;;;22.90;66.10;;;;;;10416842;28;20029;-57
2021/07/10 22:44:35;;;;;;;10.60;9.48;;;22.90;66.20;;;;;;10416240;28;20068;-56
2021/07/10 22:49:36;;;;;;;11.55;9.57;;;22.90;66.20;;;;;;10416119;28;20033;-57
2021/07/10 22:54:37;;;;;;;10.98;9.20;;;22.90;66.20;;;;;;10416299;28;20422;-57
2021/07/10 22:59:38;;;;;;;9.40;8.50;;;22.90;66.20;;;;;;10415995;28;20064;-57
2021/07/10 23:04:39;;;;;;;9.85;8.85;;;22.90;66.20;;;;;;10415975;28;20033;-56
2021/07/10 23:09:39;;;;;;;10.65;9.55;;;22.90;66.30;;;;;;10415480;28;20025;-57
2021/07/10 23:14:40;;;;;;;8.85;8.07;;;22.90;66.30;;;;;;10415576;28;20101;-56
2021/07/10 23:19:41;;;;;;;9.77;8.88;;;22.90;66.30;;;;;;10420080;28;20456;-57
2021/07/10 23:24:42;;;;;;;10.60;9.52;;;22.90;66.40;;;;;;10418499;28;20048;-56
2021/07/10 23:29:46;;;;;;;8.75;7.93;;;22.90;66.30;;;;;;10414214;28;20037;-57
2021/07/10 23:34:47;;;;;;;9.18;8.38;;;22.80;66.40;;;;;;10414970;28;20025;-57
2021/07/10 23:39:47;;;;;;;9.30;8.40;;;22.80;66.30;;;;;;10414727;28;20033;-56
2021/07/10 23:44:48;;;;;;;9.13;8.23;;;22.80;66.40;;;;;;10414279;28;20095;-55
2021/07/10 23:49:49;;;;;;;9.27;8.38;;;22.80;66.40;;;;;;10407033;28;20367;-57
2021/07/10 23:54:50;;;;;;;11.50;8.95;;;22.80;66.40;;;;;;10414205;28;20051;-57
2021/07/10 23:59:52;;;;;;;9.38;8.48;;;22.80;66.50;;;;;;10414394;28;20072;-57
